Time;durP1;ratioP1;P1;durP2;ratioP2;P2;SDS_P1;SDS_P2;PMS_P1;PMS_P2;Temp;Humidity;BMP_temperature;BMP_pressure;BME280_temperature;BME280_humidity;BME280_pressure;Samples;Min_cycle;Max_cycle;Signal;HPM_P1;HPM_P2
2023/09/30 00:01:01;;;;;;;5.80;2.88;;;11.10;99.90;;;;;;5075507;28;20053;-75
2023/09/30 00:03:27;;;;;;;9.77;3.00;;;11.10;99.90;;;;;;5075178;28;20117;-75
2023/09/30 00:05:53;;;;;;;11.18;3.83;;;11.10;99.90;;;;;;5075116;28;20048;-76
2023/09/30 00:08:19;;;;;;;9.15;3.33;;;11.10;99.90;;;;;;5075110;28;20051;-76
2023/09/30 00:10:46;;;;;;;11.25;3.45;;;11.10;99.90;;;;;;5075269;28;20408;-76
2023/09/30 00:13:12;;;;;;;9.90;3.38;;;11.10;99.90;;;;;;5074886;28;20053;-76
2023/09/30 00:15:38;;;;;;;9.30;3.63;;;11.10;99.90;;;;;;5074942;28;20047;-76
2023/09/30 00:18:05;;;;;;;8.70;3.42;;;11.10;99.90;;;;;;5074851;28;20037;-76
2023/09/30 00:20:31;;;;;;;8.68;3.13;;;11.10;99.90;;;;;;5075868;28;20424;-76
2023/09/30 00:22:57;;;;;;;8.18;2.70;;;11.10;99.90;;;;;;5073432;28;20082;-76
2023/09/30 00:25:23;;;;;;;7.78;3.25;;;11.10;99.90;;;;;;5075468;28;20056;-76
2023/09/30 00:27:49;;;;;;;6.82;3.22;;;11.10;99.90;;;;;;5074613;28;20040;-76
2023/09/30 00:30:15;;;;;;;9.43;3.40;;;11.10;99.90;;;;;;5074650;28;20106;-75
2023/09/30 00:32:41;;;;;;;9.63;3.38;;;11.10;99.90;;;;;;5075120;28;20044;-75
2023/09/30 00:35:10;;;;;;;10.40;3.22;;;11.10;99.90;;;;;;5074764;28;20119;-75
2023/09/30 00:37:37;;;;;;;7.60;3.53;;;11.10;99.90;;;;;;5056848;28;20053;-75
2023/09/30 00:40:04;;;;;;;6.15;3.20;;;11.10;99.90;;;;;;5073963;28;20055;-76
2023/09/30 00:42:30;;;;;;;9.95;3.75;;;11.00;99.90;;;;;;5074312;28;20102;-76
2023/09/30 00:44:55;;;;;;;9.75;3.13;;;11.00;99.90;;;;;;5074352;28;20040;-76
2023/09/30 00:47:22;;;;;;;8.07;2.97;;;11.00;99.90;;;;;;5074943;28;20500;-76
2023/09/30 00:49:53;;;;;;;8.73;4.03;;;10.90;99.90;;;;;;5074396;28;20055;-75
2023/09/30 00:52:19;;;;;;;11.48;3.25;;;11.00;99.90;;;;;;5074329;28;20040;-76
2023/09/30 00:54:47;;;;;;;6.90;3.13;;;11.00;99.90;;;;;;5073116;28;20040;-75
2023/09/30 00:57:13;;;;;;;8.13;3.30;;;11.00;99.90;;;;;;5074227;28;20090;-75
2023/09/30 00:59:39;;;;;;;8.65;2.90;;;11.00;99.90;;;;;;5073238;28;20044;-76
2023/09/30 01:02:06;;;;;;;9.73;3.33;;;11.00;99.90;;;;;;5072999;28;20048;-76
2023/09/30 01:04:32;;;;;;;8.70;3.25;;;11.00;99.90;;;;;;5074181;28;20059;-75
2023/09/30 01:06:57;;;;;;;6.80;3.08;;;11.00;99.90;;;;;;5073051;28;20051;-76
2023/09/30 01:09:24;;;;;;;8.80;3.13;;;11.00;99.90;;;;;;5073919;28;20405;-76
2023/09/30 01:11:50;;;;;;;8.77;3.72;;;11.00;99.90;;;;;;5074246;28;20458;-77
2023/09/30 01:14:28;;;;;;;9.93;3.10;;;11.00;99.90;;;;;;5073810;28;20124;-76
2023/09/30 01:16:55;;;;;;;9.60;3.22;;;11.00;99.90;;;;;;5073895;28;20044;-77
2023/09/30 01:19:21;;;;;;;8.18;3.00;;;11.00;99.90;;;;;;5073882;28;20052;-76
2023/09/30 01:21:48;;;;;;;10.18;3.40;;;11.00;99.90;;;;;;5056488;28;20135;-76
2023/09/30 01:24:17;;;;;;;8.85;3.33;;;11.10;99.90;;;;;;5073742;28;20053;-76
2023/09/30 01:26:43;;;;;;;11.85;3.60;;;11.10;99.90;;;;;;5072533;28;20047;-76
2023/09/30 01:29:12;;;;;;;7.68;2.95;;;11.10;99.90;;;;;;5073725;28;20508;-76
2023/09/30 01:31:39;;;;;;;8.27;3.25;;;11.10;99.90;;;;;;5073630;28;20044;-76
2023/09/30 01:34:04;;;;;;;10.80;3.47;;;11.10;99.90;;;;;;5072116;28;20497;-76
2023/09/30 01:36:30;;;;;;;9.00;3.55;;;11.10;99.90;;;;;;5073650;28;20087;-76
2023/09/30 01:38:56;;;;;;;9.43;3.53;;;11.10;99.90;;;;;;5073465;28;20074;-76
2023/09/30 01:41:22;;;;;;;7.43;3.15;;;11.10;99.90;;;;;;5072923;28;20087;-76
2023/09/30 01:43:48;;;;;;;7.25;3.20;;;11.10;99.90;;;;;;5074184;28;20522;-76
2023/09/30 01:46:14;;;;;;;8.85;3.58;;;11.10;99.90;;;;;;5073538;28;20040;-76
2023/09/30 01:48:39;;;;;;;10.98;3.95;;;11.00;99.90;;;;;;5074103;28;20040;-76
2023/09/30 01:51:06;;;;;;;11.00;3.42;;;11.00;99.90;;;;;;5072502;28;20044;-76
2023/09/30 01:53:32;;;;;;;9.38;3.70;;;11.00;99.90;;;;;;5073384;28;20401;-76
2023/09/30 01:55:58;;;;;;;8.70;3.15;;;11.00;99.90;;;;;;5073438;28;20127;-76
2023/09/30 01:58:25;;;;;;;13.27;4.25;;;11.00;99.90;;;;;;5073493;28;20041;-76
2023/09/30 02:00:54;;;;;;;9.43;3.67;;;11.00;99.90;;;;;;5073495;28;20107;-76
2023/09/30 02:03:20;;;;;;;9.02;3.47;;;11.00;99.90;;;;;;5072648;28;20101;-76
2023/09/30 02:05:46;;;;;;;6.93;3.17;;;11.00;99.90;;;;;;5073653;28;20045;-76
2023/09/30 02:08:13;;;;;;;8.98;2.80;;;11.00;99.90;;;;;;5073269;28;20051;-76
2023/09/30 02:10:39;;;;;;;7.72;3.38;;;10.90;99.90;;;;;;5072085;28;20052;-76
2023/09/30 02:13:06;;;;;;;7.28;3.20;;;10.90;99.90;;;;;;5074039;28;20043;-76
2023/09/30 02:15:32;;;;;;;7.63;2.75;;;10.90;99.90;;;;;;5077746;28;20092;-76
2023/09/30 02:17:57;;;;;;;8.65;3.60;;;10.90;99.90;;;;;;5077091;28;20091;-76
2023/09/30 02:20:25;;;;;;;7.80;3.03;;;10.90;99.90;;;;;;5077860;28;20079;-76
2023/09/30 02:22:52;;;;;;;8.88;3.35;;;10.90;99.90;;;;;;5077401;28;20052;-75
2023/09/30 02:25:18;;;;;;;9.98;3.90;;;10.90;99.90;;;;;;5077064;28;20044;-76
2023/09/30 02:27:45;;;;;;;8.60;3.58;;;10.90;99.90;;;;;;5076889;28;20040;-76
2023/09/30 02:30:14;;;;;;;7.60;2.90;;;10.90;99.90;;;;;;5077763;28;20040;-76
2023/09/30 02:32:40;;;;;;;9.95;3.88;;;10.90;99.90;;;;;;5076914;28;20045;-76
2023/09/30 02:35:07;;;;;;;9.35;3.65;;;10.90;99.90;;;;;;5076866;28;20049;-76
2023/09/30 02:37:35;;;;;;;7.75;3.70;;;10.90;99.90;;;;;;5076764;28;20041;-76
2023/09/30 02:40:09;;;;;;;9.07;3.50;;;10.90;99.90;;;;;;5076774;28;20497;-76
2023/09/30 02:42:38;;;;;;;8.43;3.58;;;10.90;99.90;;;;;;5076776;28;20474;-76
2023/09/30 02:45:05;;;;;;;11.18;4.40;;;10.90;99.90;;;;;;5059025;28;20059;-76
2023/09/30 02:47:32;;;;;;;8.60;3.83;;;11.00;99.90;;;;;;5075673;28;20060;-76
2023/09/30 02:49:58;;;;;;;9.35;3.55;;;11.00;99.90;;;;;;5076628;28;20055;-76
2023/09/30 02:52:28;;;;;;;6.05;3.78;;;11.00;99.90;;;;;;5077116;28;20051;-76
2023/09/30 02:54:54;;;;;;;8.30;3.53;;;11.00;99.90;;;;;;5076343;28;20083;-76
2023/09/30 02:57:20;;;;;;;10.55;4.10;;;11.00;99.90;;;;;;5076935;28;20045;-76
2023/09/30 02:59:47;;;;;;;10.38;3.92;;;11.10;99.90;;;;;;5076400;28;20135;-75
2023/09/30 03:02:13;;;;;;;10.05;3.78;;;11.10;99.90;;;;;;5076434;28;20076;-76
2023/09/30 03:04:38;;;;;;;10.75;4.10;;;11.10;99.90;;;;;;5076339;28;20441;-76
2023/09/30 03:07:05;;;;;;;7.00;3.38;;;11.10;99.90;;;;;;5076882;28;20064;-76
2023/09/30 03:09:31;;;;;;;8.23;4.25;;;11.10;99.90;;;;;;5075523;28;20054;-75
2023/09/30 03:11:59;;;;;;;7.18;3.42;;;11.10;99.90;;;;;;5076216;28;20048;-75
2023/09/30 03:14:25;;;;;;;9.95;3.97;;;11.00;99.90;;;;;;5075217;28;20120;-75
2023/09/30 03:16:50;;;;;;;8.73;4.28;;;11.00;99.90;;;;;;5076070;28;20143;-75
2023/09/30 03:19:16;;;;;;;10.73;4.28;;;11.00;99.90;;;;;;5076043;28;20048;-75
2023/09/30 03:21:42;;;;;;;11.50;4.32;;;11.00;99.90;;;;;;5075093;28;20037;-76
2023/09/30 03:24:08;;;;;;;9.25;3.72;;;11.00;99.90;;;;;;5075571;28;20440;-76
2023/09/30 03:26:35;;;;;;;8.98;3.30;;;11.00;99.90;;;;;;5075713;28;20052;-76
2023/09/30 03:29:01;;;;;;;7.18;3.33;;;10.90;99.90;;;;;;5075693;28;20045;-75
2023/09/30 03:31:27;;;;;;;10.82;3.80;;;10.90;99.90;;;;;;5075887;28;20435;-76
2023/09/30 03:33:55;;;;;;;9.88;4.30;;;10.90;99.90;;;;;;5076013;28;20178;-77
2023/09/30 03:36:24;;;;;;;9.63;3.72;;;10.90;99.90;;;;;;5074556;28;20056;-76
2023/09/30 03:38:54;;;;;;;12.10;4.13;;;10.90;99.90;;;;;;5075364;28;20049;-76
2023/09/30 03:41:20;;;;;;;7.93;3.58;;;10.90;99.90;;;;;;5075713;28;20052;-76
2023/09/30 03:43:45;;;;;;;10.20;3.90;;;10.90;99.90;;;;;;5075786;28;20171;-76
2023/09/30 03:46:12;;;;;;;9.23;3.90;;;10.90;99.90;;;;;;5075573;28;20048;-76
2023/09/30 03:48:40;;;;;;;8.38;3.80;;;10.90;99.90;;;;;;5075457;28;20053;-76
2023/09/30 03:51:13;;;;;;;7.95;3.67;;;10.80;99.90;;;;;;5076227;28;20044;-76
2023/09/30 03:53:43;;;;;;;8.60;4.30;;;10.80;99.90;;;;;;5075667;28;20159;-76
2023/09/30 03:56:11;;;;;;;9.85;4.65;;;10.80;99.90;;;;;;5075292;28;20052;-76
2023/09/30 03:58:38;;;;;;;9.32;4.20;;;10.70;99.90;;;;;;5074422;28;20056;-75
2023/09/30 04:01:04;;;;;;;7.80;3.58;;;10.70;99.90;;;;;;5075252;28;20059;-76
2023/09/30 04:03:33;;;;;;;9.05;3.72;;;10.70;99.90;;;;;;5074217;28;20044;-76
2023/09/30 04:05:59;;;;;;;10.60;4.25;;;10.70;99.90;;;;;;5074428;28;20044;-76
2023/09/30 04:08:24;;;;;;;8.93;3.85;;;10.70;99.90;;;;;;5073997;28;20527;-76
2023/09/30 04:10:50;;;;;;;10.07;4.20;;;10.70;99.90;;;;;;5074109;28;20049;-76
2023/09/30 04:13:16;;;;;;;8.35;3.85;;;10.70;99.90;;;;;;5075522;28;20125;-76
2023/09/30 04:15:44;;;;;;;10.02;3.75;;;10.70;99.90;;;;;;5075019;28;20095;-76
2023/09/30 04:18:11;;;;;;;8.20;3.40;;;10.70;99.90;;;;;;5075050;28;20090;-76
2023/09/30 04:20:40;;;;;;;8.65;3.58;;;10.70;99.90;;;;;;5073811;28;20048;-75
2023/09/30 04:23:10;;;;;;;9.20;4.00;;;10.70;99.90;;;;;;5075105;28;20435;-76
2023/09/30 04:25:36;;;;;;;10.57;3.88;;;10.70;99.90;;;;;;5074742;28;20054;-76
2023/09/30 04:28:02;;;;;;;8.65;3.67;;;10.80;99.90;;;;;;5074503;28;20128;-75
2023/09/30 04:30:29;;;;;;;11.05;3.88;;;10.80;99.90;;;;;;5073547;28;20459;-75
2023/09/30 04:32:56;;;;;;;7.85;3.90;;;10.90;99.90;;;;;;5074633;28;20405;-75
2023/09/30 04:35:22;;;;;;;8.95;4.00;;;10.90;99.90;;;;;;5074964;28;20126;-76
2023/09/30 04:37:48;;;;;;;7.40;3.80;;;10.90;99.90;;;;;;5073868;28;20441;-75
2023/09/30 04:40:19;;;;;;;8.30;3.85;;;10.90;99.90;;;;;;5073102;28;20092;-75
2023/09/30 04:42:46;;;;;;;9.07;4.47;;;10.90;99.90;;;;;;5073800;28;20103;-75
2023/09/30 04:45:12;;;;;;;8.55;3.72;;;10.90;99.90;;;;;;5073461;28;20059;-75
2023/09/30 04:47:38;;;;;;;12.05;3.80;;;11.00;99.90;;;;;;5074266;28;20052;-75
2023/09/30 04:50:08;;;;;;;8.80;3.97;;;10.90;99.90;;;;;;5073274;28;20048;-75
2023/09/30 04:52:38;;;;;;;9.63;4.38;;;10.90;99.90;;;;;;5074203;28;20051;-75
2023/09/30 04:55:05;;;;;;;8.80;3.95;;;10.90;99.90;;;;;;5074134;28;20056;-75
2023/09/30 04:57:33;;;;;;;9.73;4.32;;;10.90;99.90;;;;;;5073447;28;20052;-75
2023/09/30 05:00:00;;;;;;;7.32;4.20;;;10.90;99.90;;;;;;5074115;28;20044;-76
2023/09/30 05:02:27;;;;;;;9.23;4.25;;;10.90;99.90;;;;;;5073733;28;20497;-75
2023/09/30 05:04:53;;;;;;;9.65;4.05;;;10.90;99.90;;;;;;5074352;28;20040;-76
2023/09/30 05:07:21;;;;;;;7.55;3.80;;;10.90;99.90;;;;;;5074058;28;20499;-76
2023/09/30 05:09:47;;;;;;;9.90;4.38;;;10.90;99.90;;;;;;5072793;28;20040;-77
2023/09/30 05:12:13;;;;;;;10.43;5.13;;;10.90;99.90;;;;;;5073950;28;20048;-77
2023/09/30 05:14:39;;;;;;;9.77;4.43;;;10.90;99.90;;;;;;5074114;28;20044;-77
2023/09/30 05:17:05;;;;;;;11.38;5.10;;;10.90;99.90;;;;;;5073209;28;20060;-76
2023/09/30 05:19:32;;;;;;;9.15;4.20;;;10.80;99.90;;;;;;5073595;28;20510;-76
2023/09/30 05:21:58;;;;;;;13.27;4.40;;;10.90;99.90;;;;;;5073830;28;20049;-74
2023/09/30 05:24:23;;;;;;;10.02;4.40;;;10.90;99.90;;;;;;5073392;28;20420;-75
2023/09/30 05:26:49;;;;;;;9.43;3.97;;;10.90;99.90;;;;;;5074075;28;20045;-75
2023/09/30 05:29:16;;;;;;;8.23;4.70;;;10.90;99.90;;;;;;5073655;28;20045;-75
2023/09/30 05:31:42;;;;;;;10.57;4.78;;;10.90;99.90;;;;;;5073725;28;20071;-75
2023/09/30 05:34:08;;;;;;;11.43;5.88;;;10.90;99.90;;;;;;5073676;28;20049;-75
2023/09/30 05:36:34;;;;;;;7.53;4.18;;;10.90;99.90;;;;;;5073537;28;20036;-75
2023/09/30 05:39:00;;;;;;;9.90;4.22;;;10.80;99.90;;;;;;5073111;28;20060;-75
2023/09/30 05:41:27;;;;;;;7.75;4.60;;;10.80;99.90;;;;;;5072645;28;20452;-75
2023/09/30 05:43:53;;;;;;;8.90;4.68;;;10.80;99.90;;;;;;5073483;28;20043;-76
2023/09/30 05:46:19;;;;;;;9.55;4.07;;;10.80;99.90;;;;;;5074059;28;20048;-75
2023/09/30 05:48:44;;;;;;;10.13;4.95;;;10.80;99.90;;;;;;5073026;28;20554;-75
2023/09/30 05:51:14;;;;;;;12.07;4.60;;;10.80;99.90;;;;;;5073706;28;20059;-76
2023/09/30 05:53:41;;;;;;;8.40;4.65;;;10.80;99.90;;;;;;5073923;28;20040;-75
2023/09/30 05:56:07;;;;;;;8.98;5.13;;;10.80;99.90;;;;;;5072674;28;20056;-75
2023/09/30 05:58:33;;;;;;;9.82;4.57;;;10.80;99.90;;;;;;5074014;28;20048;-76
2023/09/30 06:01:00;;;;;;;12.05;4.38;;;10.80;99.90;;;;;;5073405;28;20059;-76
2023/09/30 06:03:29;;;;;;;9.57;4.68;;;10.80;99.90;;;;;;5073376;28;20101;-76
2023/09/30 06:05:55;;;;;;;9.60;4.82;;;10.70;99.90;;;;;;5073255;28;20059;-76
2023/09/30 06:08:21;;;;;;;8.75;4.60;;;10.80;99.90;;;;;;5073350;28;20056;-76
2023/09/30 06:10:47;;;;;;;9.82;5.07;;;10.70;99.90;;;;;;5072369;28;20076;-76
2023/09/30 06:13:15;;;;;;;10.02;4.97;;;10.70;99.90;;;;;;5074076;28;20044;-76
2023/09/30 06:15:41;;;;;;;8.50;4.47;;;10.70;99.90;;;;;;5072372;28;20370;-76
2023/09/30 06:18:09;;;;;;;10.00;4.57;;;10.70;99.90;;;;;;5073313;28;20500;-76
2023/09/30 06:20:35;;;;;;;7.75;4.72;;;10.60;99.90;;;;;;5073540;28;20063;-75
2023/09/30 06:23:01;;;;;;;10.88;4.80;;;10.60;99.90;;;;;;5073146;28;20048;-76
2023/09/30 06:25:27;;;;;;;9.48;5.30;;;10.70;99.90;;;;;;5073183;28;20090;-75
2023/09/30 06:27:57;;;;;;;11.35;4.82;;;10.70;99.90;;;;;;5073059;28;20049;-76
2023/09/30 06:30:29;;;;;;;8.77;5.18;;;10.80;99.90;;;;;;5073158;28;20049;-75
2023/09/30 06:33:00;;;;;;;10.55;5.57;;;10.90;99.90;;;;;;5073119;28;20091;-76
2023/09/30 06:35:26;;;;;;;9.75;5.47;;;11.00;99.90;;;;;;5073630;28;20131;-76
2023/09/30 06:37:52;;;;;;;10.57;5.30;;;11.10;99.90;;;;;;5073008;28;20074;-76
2023/09/30 06:40:18;;;;;;;11.13;5.47;;;11.20;99.90;;;;;;5073586;28;20061;-76
2023/09/30 06:42:44;;;;;;;10.43;5.15;;;11.30;99.90;;;;;;5072951;28;20056;-75
2023/09/30 06:45:10;;;;;;;13.50;6.00;;;11.30;99.90;;;;;;5072940;28;20048;-69
2023/09/30 06:47:37;;;;;;;11.82;5.25;;;11.30;99.90;;;;;;5073772;28;20076;-68
2023/09/30 06:50:07;;;;;;;10.38;5.22;;;11.30;99.90;;;;;;5072956;28;20331;-68
2023/09/30 06:52:35;;;;;;;10.82;5.90;;;11.40;99.90;;;;;;5073015;28;20135;-68
2023/09/30 06:55:01;;;;;;;10.35;5.72;;;11.50;99.90;;;;;;5072803;28;20037;-69
2023/09/30 06:57:27;;;;;;;9.80;5.30;;;11.50;99.90;;;;;;5072782;28;20048;-69
2023/09/30 06:59:53;;;;;;;8.55;5.47;;;11.60;99.90;;;;;;5074145;28;20040;-68
2023/09/30 07:02:19;;;;;;;10.15;5.97;;;11.60;99.90;;;;;;5076208;28;20044;-69
2023/09/30 07:04:44;;;;;;;11.93;5.78;;;11.70;99.90;;;;;;5075142;28;20040;-69
2023/09/30 07:07:10;;;;;;;11.27;5.40;;;11.80;99.90;;;;;;5075122;28;20079;-68
2023/09/30 07:09:36;;;;;;;12.00;5.60;;;11.80;99.90;;;;;;5076511;28;20059;-68
2023/09/30 07:12:02;;;;;;;12.02;6.22;;;11.90;99.90;;;;;;5076209;28;20390;-68
2023/09/30 07:14:27;;;;;;;11.05;5.40;;;11.90;99.90;;;;;;5076117;28;20036;-68
2023/09/30 07:16:54;;;;;;;11.40;5.30;;;12.00;99.90;;;;;;5076117;28;20504;-68
2023/09/30 07:19:20;;;;;;;10.18;5.82;;;12.10;99.90;;;;;;5075805;28;20063;-68
2023/09/30 07:21:46;;;;;;;10.68;5.45;;;12.20;99.90;;;;;;5075784;28;20444;-68
2023/09/30 07:24:12;;;;;;;10.77;5.82;;;12.20;99.90;;;;;;5075008;28;20056;-68
2023/09/30 07:26:37;;;;;;;13.88;5.93;;;12.30;99.90;;;;;;5075939;28;20044;-69
2023/09/30 07:29:04;;;;;;;11.38;5.68;;;12.40;99.90;;;;;;5075895;28;20423;-68
2023/09/30 07:31:34;;;;;;;8.93;5.78;;;12.50;99.90;;;;;;5076348;28;20048;-69
2023/09/30 07:34:01;;;;;;;13.52;6.10;;;12.60;99.90;;;;;;5075471;28;20481;-68
2023/09/30 07:36:26;;;;;;;10.48;5.88;;;12.60;99.90;;;;;;5075747;28;20083;-68
2023/09/30 07:38:52;;;;;;;11.50;5.60;;;12.70;99.90;;;;;;5076106;28;20472;-69
2023/09/30 07:41:18;;;;;;;9.27;5.10;;;12.80;99.90;;;;;;5075650;28;20182;-68
2023/09/30 07:43:44;;;;;;;11.13;5.65;;;12.80;99.90;;;;;;5074429;28;20123;-69
2023/09/30 07:46:09;;;;;;;9.65;5.18;;;12.90;99.90;;;;;;5075601;28;20048;-69
2023/09/30 07:48:35;;;;;;;9.73;5.45;;;13.00;99.90;;;;;;5075737;28;20037;-69
2023/09/30 07:51:01;;;;;;;10.63;5.60;;;13.10;99.90;;;;;;5076060;28;20093;-69
2023/09/30 07:53:28;;;;;;;9.93;5.95;;;13.20;99.90;;;;;;5074689;28;20506;-70
2023/09/30 07:55:54;;;;;;;9.90;5.22;;;13.30;99.90;;;;;;5074425;28;20083;-69
2023/09/30 07:58:20;;;;;;;10.25;5.00;;;13.50;99.90;;;;;;5075564;28;20183;-69
2023/09/30 08:00:46;;;;;;;9.85;5.60;;;13.50;99.90;;;;;;5074137;28;20055;-69
2023/09/30 08:03:11;;;;;;;13.65;5.25;;;13.50;99.90;;;;;;5075245;28;20485;-69
2023/09/30 08:05:38;;;;;;;11.10;5.45;;;13.60;99.90;;;;;;5074805;28;20050;-69
2023/09/30 08:08:04;;;;;;;9.48;5.63;;;13.70;99.90;;;;;;5075319;28;20063;-69
2023/09/30 08:10:31;;;;;;;11.90;5.72;;;13.80;99.90;;;;;;5075327;28;20040;-69
2023/09/30 08:12:58;;;;;;;10.20;5.70;;;13.90;99.90;;;;;;5074853;28;20131;-69
2023/09/30 08:15:24;;;;;;;10.73;5.38;;;14.00;99.90;;;;;;5074684;28;20080;-69
2023/09/30 08:17:50;;;;;;;11.10;5.43;;;14.00;99.90;;;;;;5074702;28;20083;-69
2023/09/30 08:20:16;;;;;;;11.35;5.60;;;14.10;99.90;;;;;;5075174;28;20086;-70
2023/09/30 08:22:42;;;;;;;12.32;5.85;;;14.20;99.90;;;;;;5075528;28;20131;-70
2023/09/30 08:25:10;;;;;;;8.63;5.03;;;14.30;99.90;;;;;;5074601;28;20580;-69
2023/09/30 08:27:37;;;;;;;10.25;6.00;;;14.40;99.90;;;;;;5074484;28;20052;-69
2023/09/30 08:30:06;;;;;;;8.70;5.55;;;14.40;99.90;;;;;;5074541;28;20087;-70
2023/09/30 08:32:34;;;;;;;11.13;6.10;;;14.50;99.90;;;;;;5074441;28;20516;-68
2023/09/30 08:34:59;;;;;;;9.27;5.53;;;14.50;99.90;;;;;;5074364;28;20041;-68
2023/09/30 08:37:25;;;;;;;10.45;5.85;;;14.50;99.90;;;;;;5073947;28;20098;-65
2023/09/30 08:39:51;;;;;;;8.95;5.97;;;14.60;99.90;;;;;;5072645;28;20140;-65
2023/09/30 08:42:19;;;;;;;11.05;6.53;;;14.60;99.90;;;;;;5074306;28;20126;-65
2023/09/30 08:44:47;;;;;;;8.82;5.57;;;14.70;99.90;;;;;;5074048;28;20132;-66
2023/09/30 08:47:14;;;;;;;9.98;5.53;;;14.80;99.90;;;;;;5056032;28;20044;-69
2023/09/30 08:49:41;;;;;;;10.70;5.70;;;14.90;99.90;;;;;;5074194;28;20126;-69
2023/09/30 08:52:10;;;;;;;8.10;5.15;;;15.00;99.90;;;;;;5074915;28;20452;-69
2023/09/30 08:54:36;;;;;;;11.93;5.60;;;15.10;99.90;;;;;;5072809;28;20091;-69
2023/09/30 08:57:04;;;;;;;11.65;5.18;;;15.20;99.90;;;;;;5074189;28;20493;-68
2023/09/30 08:59:31;;;;;;;9.35;5.97;;;15.40;99.90;;;;;;5073958;28;20049;-67
2023/09/30 09:01:58;;;;;;;9.45;5.60;;;15.50;99.90;;;;;;5074709;28;20044;-69
2023/09/30 09:04:24;;;;;;;9.65;5.53;;;15.60;99.90;;;;;;5073910;28;20064;-68
2023/09/30 09:06:52;;;;;;;11.55;5.47;;;15.70;99.90;;;;;;5073687;28;20131;-68
2023/09/30 09:09:19;;;;;;;7.03;4.65;;;15.80;99.90;;;;;;5073913;28;20127;-68
2023/09/30 09:11:48;;;;;;;8.02;4.57;;;15.90;99.90;;;;;;5073462;28;20048;-67
2023/09/30 09:14:14;;;;;;;9.27;5.35;;;16.00;99.90;;;;;;5073174;28;20044;-66
2023/09/30 09:16:54;;;;;;;9.23;4.95;;;16.10;99.90;;;;;;5073529;28;20551;-66
2023/09/30 09:19:23;;;;;;;10.32;4.63;;;16.30;99.90;;;;;;5073466;28;20508;-67
2023/09/30 09:21:56;;;;;;;9.43;4.60;;;16.40;99.90;;;;;;5073993;28;20072;-67
2023/09/30 09:24:31;;;;;;;8.88;4.97;;;16.50;99.90;;;;;;5074523;28;20049;-67
2023/09/30 09:27:08;;;;;;;8.65;4.97;;;16.60;99.90;;;;;;5072746;28;20044;-67
2023/09/30 09:29:36;;;;;;;10.65;4.90;;;16.70;99.90;;;;;;5073396;28;20051;-67
2023/09/30 09:32:17;;;;;;;9.25;4.63;;;16.90;99.90;;;;;;5073352;28;20141;-67
2023/09/30 09:35:00;;;;;;;8.52;4.43;;;16.90;99.90;;;;;;5073245;28;20128;-67
2023/09/30 09:37:26;;;;;;;7.07;4.28;;;17.10;99.90;;;;;;5073279;28;20044;-66
2023/09/30 09:39:55;;;;;;;7.65;4.40;;;17.10;99.90;;;;;;5073605;28;20069;-67
2023/09/30 09:42:31;;;;;;;6.63;4.25;;;17.20;99.90;;;;;;5073515;28;20131;-67
2023/09/30 09:44:59;;;;;;;;;;;17.10;99.90;;;;;;5073583;28;20424;-67
2023/09/30 09:47:25;;;;;;;6.13;4.30;;;17.00;99.90;;;;;;5073459;28;19959;-67
2023/09/30 09:49:52;;;;;;;10.23;4.50;;;16.90;99.90;;;;;;5072843;28;20522;-67
2023/09/30 09:52:19;;;;;;;8.43;4.85;;;16.90;99.90;;;;;;5073351;28;20048;-68
2023/09/30 09:54:48;;;;;;;8.02;4.38;;;16.90;99.90;;;;;;5073016;28;20135;-68
2023/09/30 09:57:15;;;;;;;7.53;4.93;;;17.00;99.90;;;;;;5072934;28;20488;-69
2023/09/30 09:59:46;;;;;;;6.80;3.97;;;17.20;99.90;;;;;;5073122;28;20055;-68
2023/09/30 10:02:14;;;;;;;7.45;4.55;;;17.40;99.90;;;;;;5073108;28;20481;-69
2023/09/30 10:04:43;;;;;;;7.45;3.95;;;17.50;99.90;;;;;;5073031;28;20127;-65
2023/09/30 10:07:14;;;;;;;7.93;3.90;;;17.70;99.90;;;;;;5073155;28;20575;-66
2023/09/30 10:09:45;;;;;;;7.32;3.55;;;17.90;99.90;;;;;;5073603;28;20055;-67
2023/09/30 10:12:12;;;;;;;11.63;4.72;;;18.00;99.90;;;;;;5073566;28;20090;-67
2023/09/30 10:14:37;;;;;;;8.25;3.83;;;18.20;99.90;;;;;;5073574;28;20057;-66
2023/09/30 10:17:03;;;;;;;7.07;4.70;;;18.30;99.90;;;;;;5072927;28;20477;-66
2023/09/30 10:19:31;;;;;;;7.10;3.85;;;18.30;99.90;;;;;;5072883;28;20048;-67
2023/09/30 10:22:26;;;;;;;8.05;4.40;;;18.40;99.90;;;;;;5072846;28;20049;-66
2023/09/30 10:24:56;;;;;;;7.45;4.20;;;18.50;99.90;;;;;;5068192;28;20055;-66
2023/09/30 10:27:22;;;;;;;6.88;4.15;;;18.50;99.90;;;;;;5072610;28;20045;-67
2023/09/30 10:29:54;;;;;;;6.28;3.80;;;18.70;99.90;;;;;;5072659;28;20397;-67
2023/09/30 10:32:19;;;;;;;6.90;4.10;;;18.80;99.90;;;;;;5072022;28;20538;-66
2023/09/30 10:34:51;;;;;;;9.00;4.13;;;18.90;99.90;;;;;;5075856;28;20040;-65
2023/09/30 10:37:21;;;;;;;8.32;4.10;;;19.00;99.90;;;;;;5077043;28;20044;-66
2023/09/30 10:39:54;;;;;;;7.38;4.03;;;18.90;99.90;;;;;;5076951;28;20056;-66
2023/09/30 10:42:45;;;;;;;7.88;3.88;;;19.00;99.90;;;;;;5075496;28;20100;-65
2023/09/30 10:45:39;;;;;;;10.05;3.85;;;19.00;99.90;;;;;;5075585;28;20442;-65
2023/09/30 10:48:32;;;;;;;7.13;3.83;;;19.10;99.90;;;;;;5077287;28;20412;-69
2023/09/30 10:51:00;;;;;;;7.80;4.05;;;19.10;99.90;;;;;;5076449;28;20049;-65
2023/09/30 10:53:27;;;;;;;6.32;3.10;;;19.10;99.90;;;;;;5076621;28;20051;-65
2023/09/30 10:55:57;;;;;;;6.82;3.45;;;19.20;99.90;;;;;;5076898;28;20452;-65
2023/09/30 10:58:51;;;;;;;7.80;3.58;;;19.30;99.90;;;;;;5077034;28;20101;-65
2023/09/30 11:01:22;;;;;;;7.38;3.58;;;19.40;99.90;;;;;;5076257;28;20135;-65
2023/09/30 11:03:52;;;;;;;5.72;3.10;;;19.40;99.90;;;;;;5075500;28;20048;-65
2023/09/30 11:06:21;;;;;;;6.38;2.78;;;19.40;99.90;;;;;;5075920;28;20052;-65
2023/09/30 11:08:54;;;;;;;6.97;3.25;;;19.30;99.90;;;;;;5076054;28;20124;-65
2023/09/30 11:11:39;;;;;;;4.85;2.38;;;19.40;99.90;;;;;;5075162;28;20061;-65
2023/09/30 11:14:27;;;;;;;6.28;2.75;;;19.30;99.90;;;;;;5076795;28;20069;-66
2023/09/30 11:16:55;;;;;;;7.55;2.60;;;19.20;99.90;;;;;;5076860;28;20377;-67
2023/09/30 11:19:21;;;;;;;6.97;2.00;;;19.10;99.90;;;;;;5075197;28;20052;-66
2023/09/30 11:21:53;;;;;;;5.35;2.42;;;18.90;99.90;;;;;;5075698;28;20381;-66
2023/09/30 11:24:19;;;;;;;4.88;2.40;;;18.70;99.90;;;;;;5075747;28;20106;-65
2023/09/30 11:26:46;;;;;;;5.95;2.45;;;18.70;99.90;;;;;;5074654;28;20048;-66
2023/09/30 11:29:13;;;;;;;3.45;2.00;;;18.60;99.90;;;;;;5075653;28;20145;-67
2023/09/30 11:31:40;;;;;;;5.57;1.75;;;18.40;99.90;;;;;;5074463;28;20049;-66
2023/09/30 11:34:07;;;;;;;3.95;1.58;;;18.50;99.90;;;;;;5075588;28;20049;-66
2023/09/30 11:36:37;;;;;;;4.82;1.60;;;18.60;99.90;;;;;;5076276;28;20080;-67
2023/09/30 11:39:04;;;;;;;3.53;1.63;;;18.60;99.90;;;;;;5074099;28;20104;-67
2023/09/30 11:41:41;;;;;;;4.93;1.50;;;18.60;99.90;;;;;;5075615;28;20048;-67
2023/09/30 11:44:10;;;;;;;3.40;1.65;;;18.60;99.90;;;;;;5075411;28;20098;-66
2023/09/30 11:46:55;;;;;;;4.07;1.20;;;18.70;99.90;;;;;;5074672;28;20049;-66
2023/09/30 11:49:28;;;;;;;3.75;1.50;;;18.80;99.90;;;;;;5075442;28;20044;-65
2023/09/30 11:51:54;;;;;;;3.35;1.65;;;18.80;99.90;;;;;;5075251;28;20040;-65
2023/09/30 11:54:21;;;;;;;3.50;1.40;;;18.80;99.90;;;;;;5075416;28;20516;-66
2023/09/30 11:56:48;;;;;;;7.75;2.00;;;18.80;99.90;;;;;;5075938;28;20416;-66
2023/09/30 11:59:13;;;;;;;4.38;1.85;;;18.80;99.90;;;;;;5074940;28;20106;-66
2023/09/30 12:01:39;;;;;;;5.00;1.92;;;18.80;99.90;;;;;;5074986;28;20041;-66
2023/09/30 12:04:06;;;;;;;4.25;1.73;;;18.90;99.90;;;;;;5074956;28;20128;-67
2023/09/30 12:06:34;;;;;;;4.90;1.55;;;18.90;99.90;;;;;;5075160;28;20056;-67
2023/09/30 12:09:00;;;;;;;4.20;1.30;;;18.90;99.90;;;;;;5074755;28;20049;-67
2023/09/30 12:11:25;;;;;;;5.35;1.30;;;18.90;99.90;;;;;;5075340;28;20050;-67
2023/09/30 12:13:51;;;;;;;3.15;1.20;;;18.70;99.90;;;;;;5074612;28;20048;-67
2023/09/30 12:16:17;;;;;;;5.13;1.60;;;18.60;99.90;;;;;;5073206;28;20516;-66
2023/09/30 12:18:43;;;;;;;4.95;1.38;;;18.60;99.90;;;;;;5075227;28;20044;-66
2023/09/30 12:21:19;;;;;;;2.95;1.15;;;18.70;99.90;;;;;;5074782;28;20432;-67
2023/09/30 12:23:45;;;;;;;4.32;1.23;;;18.70;99.90;;;;;;5074546;28;20044;-67
2023/09/30 12:26:12;;;;;;;4.82;1.30;;;18.80;99.90;;;;;;5073469;28;20048;-66
2023/09/30 12:28:39;;;;;;;5.70;1.35;;;18.70;99.90;;;;;;5073167;28;20045;-66
2023/09/30 12:31:05;;;;;;;4.45;1.30;;;18.60;99.90;;;;;;5074343;28;20091;-66
2023/09/30 12:33:32;;;;;;;3.53;1.27;;;18.50;99.90;;;;;;5074333;28;20110;-66
2023/09/30 12:35:58;;;;;;;5.15;1.40;;;18.60;99.90;;;;;;5074327;28;20559;-67
2023/09/30 12:38:25;;;;;;;3.72;1.10;;;18.60;99.90;;;;;;5074461;28;20448;-67
2023/09/30 12:40:53;;;;;;;3.15;1.27;;;18.50;99.90;;;;;;5074578;28;20665;-67
2023/09/30 12:43:19;;;;;;;5.03;1.08;;;18.30;99.90;;;;;;5073835;28;20051;-66
2023/09/30 12:45:46;;;;;;;3.60;1.00;;;18.20;99.90;;;;;;5073973;28;20052;-66